Data for 10/11/2016

Time Sea-Level Adjusted Pressure Absolute Pressure Temperature Relative Humidity Dew Point   
(mb) (inHg) (mb) (inHg) (C) (F) (%) (C) (F)
00:05 1018 30.06 848 25.04 -0.4 31.3 86 -2.5 27.5
00:10 1018 30.06 848 25.04 -0.4 31.3 86 -2.5 27.5
00:15 1018 30.06 848 25.04 -0.3 31.5 85 -2.6 27.4
00:20 1018 30.06 848 25.04 -0.1 31.8 83 -2.7 27.1
00:25 1018 30.06 847 25.01 -0.1 31.8 81 -3 26.6
00:30 1018 30.06 847 25.01 -0 32 82 -2.7 27.2
00:35 1018 30.06 848 25.04 -0 31.9 85 -2.3 27.8
00:40 1018 30.06 848 25.04 -0.1 31.9 86 -2.2 28.1
00:45 1018 30.06 848 25.04 -0.1 31.8 87 -2.1 28.3
00:50 1018 30.06 848 25.04 -0.2 31.6 88 -2 28.3
00:55 1019 30.09 848 25.04 -0.5 31.1 88 -2.2 28
01:00 1019 30.09 848 25.04 -0.9 30.4 89 -2.5 27.4
01:05 1018 30.06 848 25.04 -1 30.1 90 -2.5 27.5
01:10 1018 30.06 848 25.04 -1.2 29.9 90 -2.6 27.3
01:15 1018 30.06 848 25.04 -1.3 29.7 91 -2.6 27.4
01:20 1018 30.06 847 25.01 -1.2 29.8 90 -2.6 27.3
01:25 1018 30.06 847 25.01 -1.3 29.7 91 -2.6 27.3
01:30 1018 30.06 847 25.01 -1.4 29.5 91 -2.6 27.3
01:35 1018 30.06 847 25.01 -1.4 29.5 91 -2.7 27.1
01:40 1018 30.06 847 25.01 -1.3 29.7 92 -2.5 27.5
01:45 1018 30.06 847 25.01 -1.4 29.6 91 -2.6 27.3
01:50 1018 30.06 847 25.01 -1.5 29.2 91 -2.8 26.9
01:55 1018 30.06 847 25.01 -1.7 29 91 -2.9 26.8
02:00 1018 30.06 847 25.01 -1.7 29 91 -2.9 26.7
02:05 1018 30.06 848 25.04 -1.7 29 91 -2.9 26.8
02:10 1018 30.06 847 25.01 -1.7 28.9 91 -3 26.6
02:15 1018 30.06 847 25.01 -1.7 28.9 90 -3.1 26.4
02:20 1018 30.06 847 25.01 -1.7 28.9 91 -3 26.5
02:25 1018 30.06 847 25.01 -1.8 28.8 90 -3.1 26.4
02:30 1018 30.06 847 25.01 -1.8 28.8 91 -3.1 26.5
02:35 1018 30.06 847 25.01 -1.9 28.5 92 -3 26.5
02:40 1018 30.06 847 25.01 -2 28.4 93 -3 26.5
02:45 1018 30.06 847 25.01 -2.1 28.2 93 -3.1 26.3
02:50 1018 30.06 847 25.01 -2.2 28.1 92 -3.3 26.1
02:55 1018 30.06 847 25.01 -2.1 28.2 92 -3.3 26.1
03:00 1018 30.06 847 25.01 -2.1 28.2 92 -3.2 26.2
03:05 1018 30.06 847 25.01 -2.2 28.1 93 -3.2 26.3
03:10 1018 30.06 847 25.01 -2.2 28 93 -3.3 26.1
03:15 1018 30.06 847 25.01 -2.3 27.9 93 -3.2 26.2
03:20 1018 30.06 847 25.01 -2.3 27.8 93 -3.3 26.1
03:25 1018 30.06 847 25.01 -2.3 27.9 93 -3.2 26.2
03:30 1018 30.06 847 25.01 -2.3 27.9 94 -3.2 26.2
03:35 1018 30.06 847 25.01 -2.3 27.8 94 -3.2 26.2
03:40 1018 30.06 847 25.01 -2.4 27.8 93 -3.3 26
03:45 1018 30.06 847 25.01 -2.4 27.6 93 -3.4 25.9
03:50 1018 30.06 847 25.01 -2.5 27.5 93 -3.4 25.8
03:55 1018 30.06 847 25.01 -2.5 27.6 93 -3.5 25.8
04:00 1018 30.06 847 25.01 -2.5 27.6 93 -3.4 25.8
04:05 1018 30.06 848 25.04 -2.5 27.5 93 -3.4 25.8
04:10 1019 30.09 848 25.04 -2.5 27.4 93 -3.5 25.7
04:15 1019 30.09 848 25.04 -2.6 27.4 93 -3.5 25.6
04:20 1018 30.06 848 25.04 -2.6 27.4 93 -3.6 25.5
04:25 1018 30.06 848 25.04 -2.6 27.2 92 -3.8 25.2
04:30 1018 30.06 847 25.01 -2.7 27.1 92 -3.9 25.1
04:35 1018 30.06 848 25.04 -2.8 27 92 -3.9 25
04:40 1019 30.09 848 25.04 -2.8 27 92 -3.9 25
04:45 1019 30.09 848 25.04 -2.8 26.9 92 -3.9 25
04:50 1019 30.09 848 25.04 -2.8 27 92 -3.9 25.1
04:55 1019 30.09 848 25.04 -2.7 27.1 93 -3.8 25.2
05:00 1019 30.09 848 25.04 -2.8 27 93 -3.7 25.3
05:05 1019 30.09 848 25.04 -2.7 27.1 93 -3.7 25.4
05:10 1019 30.09 848 25.04 -2.7 27.2 92 -3.7 25.3
05:15 1019 30.09 848 25.04 -2.7 27.2 91 -3.9 25
05:20 1019 30.09 848 25.04 -2.7 27.2 91 -3.9 25
05:25 1019 30.09 848 25.04 -2.7 27.1 92 -3.9 25.1
05:30 1019 30.09 849 25.07 -2.8 26.9 92 -3.9 25
05:35 1019 30.09 849 25.07 -2.7 27.2 92 -3.8 25.1
05:40 1020 30.12 849 25.07 -2.6 27.4 91 -3.9 24.9
05:45 1020 30.12 849 25.07 -2.7 27.2 91 -4 24.9
05:50 1020 30.12 849 25.07 -2.7 27.1 91 -4 24.8
05:55 1020 30.12 849 25.07 -2.8 27 92 -4 24.9
06:00 1020 30.12 849 25.07 -2.8 27 92 -3.9 25
06:05 1020 30.12 849 25.07 -2.8 27 92 -3.9 24.9
06:10 1020 30.12 849 25.07 -2.9 26.9 92 -3.9 24.9
06:15 1020 30.12 849 25.07 -2.8 27 91 -4 24.8
06:20 1020 30.12 849 25.07 -2.8 27 92 -3.9 24.9
06:25 1020 30.12 849 25.07 -2.8 27.1 91 -4 24.8
06:30 1020 30.12 849 25.07 -2.9 26.7 92 -4.1 24.7
06:35 1020 30.12 849 25.07 -2.9 26.8 92 -4 24.7
06:40 1020 30.12 849 25.07 -2.9 26.8 92 -4 24.8
06:45 1020 30.12 849 25.07 -2.9 26.8 92 -4 24.8
06:50 1020 30.12 849 25.07 -2.9 26.8 92 -4 24.8
06:55 1020 30.12 849 25.07 -2.8 26.9 92 -4 24.8
07:00 1020 30.12 849 25.07 -2.8 26.9 92 -4 24.8
07:05 1020 30.12 849 25.07 -2.8 27 91 -4 24.8
07:10 1020 30.12 849 25.07 -2.8 26.9 91 -4.1 24.6
07:15 1020 30.12 849 25.07 -2.8 27 87 -4.7 23.5
07:20 1020 30.12 849 25.07 -2.8 27 82 -5.5 22.1
07:25 1020 30.12 849 25.07 -2.8 26.9 79 -5.9 21.4
07:30 1020 30.12 849 25.07 -2.9 26.8 81 -5.7 21.7
07:35 1020 30.12 849 25.07 -2.9 26.8 80 -5.9 21.4
07:40 1020 30.12 849 25.07 -2.9 26.7 81 -5.8 21.5
07:45 1020 30.12 850 25.1 -3 26.5 81 -5.9 21.4
07:50 1020 30.12 850 25.1 -3.1 26.4 81 -5.9 21.3
07:55 1020 30.12 850 25.1 -3.2 26.3 82 -5.8 21.6
08:00 1020 30.12 850 25.1 -3.2 26.2 82 -5.8 21.5
08:05 1021 30.15 850 25.1 -3.2 26.2 84 -5.6 21.9
08:10 1021 30.15 850 25.1 -3.3 26.1 83 -5.8 21.5
08:15 1021 30.15 850 25.1 -3.4 26 84 -5.7 21.7
08:20 1021 30.15 850 25.1 -3.3 26 83 -5.9 21.5
08:25 1021 30.15 850 25.1 -3.4 26 82 -6 21.2
08:30 1021 30.15 850 25.1 -3.3 26 82 -6 21.2
08:35 1021 30.15 850 25.1 -3.4 25.9 82 -6 21.2
08:40 1021 30.15 850 25.1 -3.4 25.9 82 -6.1 21.1
08:45 1021 30.15 850 25.1 -3.4 25.9 82 -6 21.2
08:50 1021 30.15 850 25.1 -3.4 26 82 -6 21.2
08:55 1021 30.15 850 25.1 -3.4 25.9 82 -5.9 21.3
09:00 1021 30.15 850 25.1 -3.3 26.1 81 -6 21.1
09:05 1021 30.15 850 25.1 -3.2 26.2 81 -6 21.2
09:10 1021 30.15 850 25.1 -3.2 26.3 82 -5.9 21.4
09:15 1021 30.15 850 25.1 -3.1 26.4 80 -6.1 21.1
09:20 1021 30.15 851 25.13 -3.1 26.4 80 -6 21.2
09:25 1021 30.15 851 25.13 -3.1 26.4 80 -6 21.2
09:30 1022 30.18 851 25.13 -3 26.5 81 -5.9 21.3
09:35 1022 30.18 851 25.13 -3.1 26.5 82 -5.8 21.6
09:40 1022 30.18 851 25.13 -2.9 26.7 80 -5.9 21.4
09:45 1022 30.18 851 25.13 -3 26.7 81 -5.8 21.5
09:50 1022 30.18 851 25.13 -2.9 26.8 80 -5.8 21.5
09:55 1022 30.18 851 25.13 -2.8 27 81 -5.6 21.9
10:00 1022 30.18 851 25.13 -2.7 27.1 78 -6 21.3
10:05 1022 30.18 851 25.13 -2.8 27 79 -5.9 21.4
10:10 1022 30.18 851 25.13 -2.8 26.9 80 -5.8 21.5
10:15 1022 30.18 851 25.13 -2.7 27.2 81 -5.6 22
10:20 1022 30.18 851 25.13 -2.6 27.2 82 -5.3 22.4
10:25 1022 30.18 851 25.13 -2.2 28 78 -5.6 21.9
10:30 1022 30.18 851 25.13 -2.1 28.2 78 -5.5 22.2
10:35 1022 30.18 851 25.13 -2.1 28.2 76 -5.8 21.6
10:40 1022 30.18 851 25.13 -2.1 28.1 74 -6.1 21
10:45 1022 30.18 851 25.13 -2.2 28.1 75 -5.9 21.3
10:50 1022 30.18 852 25.16 -2.1 28.3 74 -6 21.2
10:55 1022 30.18 851 25.13 -2.1 28.3 73 -6.2 20.8
11:00 1022 30.18 851 25.13 -2 28.4 73 -6.2 20.9
11:05 1022 30.18 851 25.13 -1.8 28.8 72 -6.1 21
11:10 1022 30.18 851 25.13 -1.3 29.7 69 -6.2 20.8
11:15 1022 30.18 852 25.16 -1.7 29 72 -6.1 20.9
11:20 1023 30.21 852 25.16 -1.8 28.8 69 -6.6 20.1
11:25 1023 30.21 852 25.16 -1.7 28.9 72 -6.1 21
11:30 1023 30.21 852 25.16 -1.2 29.9 69 -6.1 20.9
11:35 1023 30.21 852 25.16 -1.5 29.2 70 -6.2 20.8
11:40 1023 30.21 852 25.16 -1.4 29.4 70 -6.2 20.8
11:45 1023 30.21 852 25.16 -1.4 29.4 70 -6.3 20.7
11:50 1023 30.21 852 25.16 -1.4 29.5 69 -6.3 20.7
11:55 1023 30.21 852 25.16 -1.5 29.4 71 -6.1 21
12:00 1023 30.21 852 25.16 -1.3 29.6 70 -6.2 20.9
12:05 1023 30.21 852 25.16 -1.4 29.5 72 -5.8 21.5
12:10 1023 30.21 852 25.16 -1.4 29.5 73 -5.6 21.9
12:15 1023 30.21 852 25.16 -1.5 29.4 73 -5.8 21.6
12:20 1023 30.21 852 25.16 -1.5 29.3 75 -5.4 22.3
12:25 1023 30.21 852 25.16 -1.5 29.3 74 -5.5 22
12:30 1023 30.21 853 25.19 -1.5 29.3 74 -5.5 22.1
12:35 1023 30.21 853 25.19 -1.5 29.3 74 -5.5 22.2
12:40 1023 30.21 853 25.19 -1.6 29.2 77 -5.1 22.9
12:45 1023 30.21 853 25.19 -1.7 28.9 76 -5.4 22.3
12:50 1024 30.24 853 25.19 -1.7 28.9 77 -5.3 22.5
12:55 1024 30.24 853 25.19 -1.7 29 78 -5 23
13:00 1024 30.24 853 25.19 -1.4 29.5 78 -4.7 23.5
13:05 1024 30.24 853 25.19 -1.3 29.6 77 -4.9 23.1
13:10 1023 30.21 853 25.19 -1.5 29.4 78 -4.7 23.5
13:15 1024 30.24 853 25.19 -1.3 29.7 78 -4.6 23.8
13:20 1024 30.24 853 25.19 -1.3 29.7 79 -4.4 24.1
13:25 1024 30.24 853 25.19 -1.1 30 78 -4.5 23.9
13:30 1024 30.24 853 25.19 -1.3 29.7 78 -4.7 23.6
13:35 1023 30.21 853 25.19 -1 30.2 77 -4.6 23.8
13:40 1024 30.24 853 25.19 -1 30.1 78 -4.4 24
13:45 1024 30.24 853 25.19 -0.8 30.6 76 -4.5 23.9
13:50 1024 30.24 853 25.19 -0.3 31.4 76 -4 24.8
13:55 1024 30.24 853 25.19 -0 31.9 75 -4 24.7
14:00 1024 30.24 853 25.19 -0.4 31.3 77 -3.9 25
14:05 1024 30.24 853 25.19 -0.9 30.4 79 -4 24.7
14:10 1024 30.24 853 25.19 -0.7 30.7 79 -3.9 24.9
14:15 1024 30.24 853 25.19 -0.6 30.8 78 -4 24.8
14:20 1024 30.24 853 25.19 -0.8 30.6 78 -4.2 24.4
14:25 1024 30.24 853 25.19 -0.7 30.7 78 -4.1 24.7
14:30 1024 30.24 853 25.19 -0.4 31.3 78 -3.7 25.3
14:35 1024 30.24 853 25.19 -0.3 31.5 77 -3.8 25.2
14:40 1024 30.24 853 25.19 -0.2 31.7 77 -3.7 25.4
14:45 1024 30.24 853 25.19 -0.1 31.8 78 -3.6 25.6
14:50 1024 30.24 853 25.19 -0.1 31.9 77 -3.5 25.6
14:55 1024 30.24 853 25.19 -0.4 31.3 79 -3.6 25.5
15:00 1024 30.24 853 25.19 -0.4 31.3 79 -3.6 25.5
15:05 1024 30.24 853 25.19 -0.4 31.2 80 -3.5 25.8
15:10 1024 30.24 853 25.19 -0.3 31.4 78 -3.7 25.3
15:15 1024 30.24 853 25.19 -0.9 30.4 81 -3.7 25.4
15:20 1024 30.24 853 25.19 -1 30.2 83 -3.6 25.5
15:25 1024 30.24 853 25.19 -0.5 31.1 78 -4 24.8
15:30 1024 30.24 853 25.19 -0.3 31.4 78 -3.6 25.5
15:35 1024 30.24 853 25.19 0.1 32.2 76 -3.6 25.5
15:40 1024 30.24 853 25.19 0.6 33 74 -3.6 25.5
15:45 1024 30.24 853 25.19 0.7 33.3 74 -3.4 25.9
15:50 1024 30.24 853 25.19 0.7 33.2 72 -3.9 25
15:55 1024 30.24 853 25.19 0.4 32.7 72 -4.1 24.7
16:00 1024 30.24 853 25.19 0.2 32.3 74 -4 24.8
16:05 1024 30.24 853 25.19 0.2 32.4 74 -3.9 24.9
16:10 1024 30.24 853 25.19 0.4 32.7 73 -4 24.9
16:15 1024 30.24 853 25.19 0.5 32.8 72 -4.1 24.7
16:20 1024 30.24 853 25.19 1.1 34 70 -3.7 25.3
16:25 1024 30.24 853 25.19 1.3 34.3 66 -4.3 24.3
16:30 1024 30.24 853 25.19 1.5 34.6 66 -4.3 24.2
16:35 1024 30.24 853 25.19 1.8 35.3 67 -3.8 25.2
16:40 1024 30.24 853 25.19 2.4 36.3 61 -4.5 24
16:45 1024 30.24 853 25.19 2.6 36.7 63 -3.7 25.3
16:50 1024 30.24 853 25.19 2.2 35.9 65 -3.7 25.3
16:55 1024 30.24 854 25.22 1.1 34 68 -4.1 24.6
17:00 1024 30.24 854 25.22 0.7 33.3 68 -4.5 23.9
17:05 1024 30.24 854 25.22 0.5 32.9 69 -4.5 23.9
17:10 1024 30.24 854 25.22 0.5 32.9 69 -4.6 23.7
17:15 1024 30.24 854 25.22 0.4 32.8 70 -4.4 24.1
17:20 1024 30.24 854 25.22 0.7 33.2 70 -4.2 24.4
17:25 1024 30.24 854 25.22 0.1 32.1 72 -4.5 24
17:30 1024 30.24 854 25.22 -0.1 31.8 71 -4.7 23.5
17:35 1024 30.24 854 25.22 -0.2 31.6 72 -4.7 23.6
17:40 1024 30.24 854 25.22 -0.3 31.5 71 -4.9 23.2
17:45 1024 30.24 854 25.22 -0 31.9 71 -4.7 23.5
17:50 1024 30.24 854 25.22 0.1 32.1 70 -4.8 23.4
17:55 1025 30.27 854 25.22 0 32 70 -4.9 23.2
18:00 1025 30.27 854 25.22 0.2 32.3 69 -4.8 23.3
18:05 1025 30.27 854 25.22 0.2 32.4 69 -4.9 23.2
18:10 1025 30.27 854 25.22 -0.2 31.7 71 -4.7 23.5
18:15 1025 30.27 854 25.22 -0.6 31 73 -4.8 23.4
18:20 1025 30.27 854 25.22 -0.6 31 73 -4.9 23.2
18:25 1025 30.27 854 25.22 -0.7 30.8 74 -4.7 23.5
18:30 1025 30.27 854 25.22 -0.9 30.3 75 -4.8 23.4
18:35 1025 30.27 854 25.22 -1.1 30 76 -4.8 23.4
18:40 1025 30.27 854 25.22 -1.4 29.4 78 -4.9 23.2
18:45 1025 30.27 854 25.22 -1.6 29.2 78 -4.8 23.3
18:50 1025 30.27 854 25.22 -1.6 29.1 79 -4.8 23.3
18:55 1025 30.27 854 25.22 -1.7 28.9 80 -4.8 23.4
19:00 1025 30.27 854 25.22 -1.9 28.7 80 -4.8 23.4
19:05 1025 30.27 854 25.22 -1.9 28.6 80 -4.8 23.4
19:10 1025 30.27 854 25.22 -2 28.4 81 -4.9 23.2
19:15 1025 30.27 854 25.22 -2 28.3 82 -4.8 23.4
19:20 1025 30.27 854 25.22 -2.1 28.2 82 -4.8 23.3
19:25 1025 30.27 854 25.22 -2.2 28.1 82 -4.8 23.4
19:30 1025 30.27 854 25.22 -2.3 27.8 83 -4.9 23.3
19:35 1025 30.27 854 25.22 -2.5 27.5 84 -4.9 23.2
19:40 1025 30.27 854 25.22 -2.7 27.2 84 -5 23.1
19:45 1025 30.27 854 25.22 -2.7 27.1 85 -5 23
19:50 1025 30.27 854 25.22 -2.7 27.1 85 -4.9 23.2
19:55 1025 30.27 854 25.22 -2.8 27 86 -4.8 23.4
20:00 1025 30.27 854 25.22 -3 26.6 87 -4.8 23.3
20:05 1025 30.27 854 25.22 -3.2 26.3 88 -4.9 23.2
20:10 1025 30.27 854 25.22 -3.3 26.1 88 -5 23
20:15 1025 30.27 854 25.22 -3.4 25.8 88 -5.1 22.8
20:20 1025 30.27 854 25.22 -3.6 25.5 89 -5.2 22.6
20:25 1025 30.27 854 25.22 -3.6 25.5 89 -5.2 22.7
20:30 1025 30.27 854 25.22 -3.4 25.9 88 -5.2 22.7
20:35 1025 30.27 854 25.22 -3.3 26.1 87 -5.1 22.8
20:40 1025 30.27 854 25.22 -3.2 26.2 87 -5.1 22.8
20:45 1025 30.27 854 25.22 -3.3 26.1 87 -5.1 22.7
20:50 1025 30.27 854 25.22 -3.3 26 86 -5.3 22.5
20:55 1025 30.27 854 25.22 -3.4 25.9 86 -5.4 22.3
21:00 1025 30.27 854 25.22 -3.5 25.7 86 -5.5 22
21:05 1025 30.27 854 25.22 -3.6 25.6 86 -5.6 21.9
21:10 1025 30.27 854 25.22 -3.7 25.4 86 -5.7 21.8
21:15 1025 30.27 854 25.22 -3.8 25.2 86 -5.9 21.5
21:20 1025 30.27 854 25.22 -3.7 25.3 85 -6 21.2
21:25 1025 30.27 854 25.22 -3.8 25.2 85 -6 21.3
21:30 1025 30.27 854 25.22 -3.9 25 85 -6.1 21.1
21:35 1025 30.27 854 25.22 -4 24.8 85 -6.2 20.9
21:40 1025 30.27 854 25.22 -4.1 24.6 85 -6.3 20.6
21:45 1025 30.27 854 25.22 -4.3 24.3 84 -6.5 20.2
21:50 1025 30.27 854 25.22 -4.3 24.3 84 -6.6 20.1
21:55 1025 30.27 854 25.22 -4.2 24.5 84 -6.6 20.2
22:00 1025 30.27 854 25.22 -4.1 24.5 83 -6.6 20.1
22:05 1025 30.27 854 25.22 -4.1 24.7 83 -6.6 20.2
22:10 1025 30.27 854 25.22 -4.1 24.6 83 -6.6 20.1
22:15 1025 30.27 855 25.25 -4.1 24.5 83 -6.7 20
22:20 1025 30.27 855 25.25 -4.2 24.5 83 -6.7 19.9
22:25 1025 30.27 854 25.22 -4.2 24.4 83 -6.7 19.9
22:30 1025 30.27 854 25.22 -4.3 24.3 83 -6.7 19.9
22:35 1025 30.27 854 25.22 -4.3 24.3 83 -6.8 19.8
22:40 1025 30.27 854 25.22 -4.3 24.3 82 -6.9 19.6
22:45 1025 30.27 854 25.22 -4.3 24.3 82 -6.9 19.5
22:50 1025 30.27 854 25.22 -4.3 24.3 82 -6.9 19.5
22:55 1025 30.27 854 25.22 -4.3 24.3 83 -6.8 19.7
23:00 1025 30.27 854 25.22 -4.4 24.2 82 -6.9 19.5
23:05 1025 30.27 854 25.22 -4.4 24.1 82 -7 19.4
23:10 1025 30.27 854 25.22 -4.4 24.1 82 -7.1 19.3
23:15 1025 30.27 854 25.22 -4.3 24.3 81 -7.1 19.3
23:20 1025 30.27 854 25.22 -4.4 24.2 82 -7 19.4
23:25 1025 30.27 854 25.22 -4.5 23.9 82 -7.1 19.3
23:30 1025 30.27 854 25.22 -4.7 23.6 83 -7.1 19.2
23:35 1025 30.27 854 25.22 -4.8 23.4 83 -7.2 19
23:40 1025 30.27 854 25.22 -4.9 23.2 83 -7.3 18.9
23:45 1025 30.27 855 25.25 -5 23 84 -7.3 18.9
23:50 1025 30.27 855 25.25 -5 23 84 -7.3 18.9
23:55 1025 30.27 855 25.25 -4.8 23.3 83 -7.3 18.9
24:00 1025 30.27 855 25.25 -4.9 23.1 83 -7.3 18.8